sensor_id;sensor_type;location;lat;lon;timestamp;pressure;altitude;pressure_sealevel;temperature;humidity
75051;BME280;63628;47.656;11.310;2023-06-04T00:01:12;94708.13;;;19.98;56.24
75051;BME280;63628;47.656;11.310;2023-06-04T00:03:42;94705.81;;;19.91;56.31
75051;BME280;63628;47.656;11.310;2023-06-04T00:06:09;94714.75;;;19.86;56.62
75051;BME280;63628;47.656;11.310;2023-06-04T00:08:36;94704.09;;;19.81;56.87
75051;BME280;63628;47.656;11.310;2023-06-04T00:11:04;94700.59;;;19.81;56.99
75051;BME280;63628;47.656;11.310;2023-06-04T00:13:31;94691.16;;;19.83;56.61
75051;BME280;63628;47.656;11.310;2023-06-04T00:15:58;94692.47;;;19.86;56.35
75051;BME280;63628;47.656;11.310;2023-06-04T00:18:24;94679.50;;;19.74;56.58
75051;BME280;63628;47.656;11.310;2023-06-04T00:20:52;94697.75;;;19.91;56.42
75051;BME280;63628;47.656;11.310;2023-06-04T00:23:18;94698.53;;;18.11;53.49
75051;BME280;63628;47.656;11.310;2023-06-04T00:25:45;94703.59;;;16.69;64.60
75051;BME280;63628;47.656;11.310;2023-06-04T00:28:13;94692.72;;;19.28;58.14
75051;BME280;63628;47.656;11.310;2023-06-04T00:30:40;94694.53;;;19.56;57.16
75051;BME280;63628;47.656;11.310;2023-06-04T00:33:06;94693.16;;;19.59;56.81
75051;BME280;63628;47.656;11.310;2023-06-04T00:35:33;94700.56;;;19.67;56.67
75051;BME280;63628;47.656;11.310;2023-06-04T00:38:00;94704.91;;;16.77;63.71
75051;BME280;63628;47.656;11.310;2023-06-04T00:40:27;94700.69;;;19.14;58.12
75051;BME280;63628;47.656;11.310;2023-06-04T00:42:53;94680.69;;;19.44;57.10
75051;BME280;63628;47.656;11.310;2023-06-04T00:45:23;94698.31;;;19.55;56.71
75051;BME280;63628;47.656;11.310;2023-06-04T00:47:52;94701.00;;;19.55;56.52
75051;BME280;63628;47.656;11.310;2023-06-04T00:50:19;94697.81;;;19.53;56.51
75051;BME280;63628;47.656;11.310;2023-06-04T00:52:47;94705.50;;;19.60;56.31
75051;BME280;63628;47.656;11.310;2023-06-04T00:55:14;94701.28;;;19.54;56.60
75051;BME280;63628;47.656;11.310;2023-06-04T00:57:44;94705.84;;;19.53;56.57
75051;BME280;63628;47.656;11.310;2023-06-04T01:00:12;94702.59;;;19.56;56.24
75051;BME280;63628;47.656;11.310;2023-06-04T01:02:43;94701.84;;;19.51;56.49
75051;BME280;63628;47.656;11.310;2023-06-04T01:05:16;94709.81;;;16.24;58.73
75051;BME280;63628;47.656;11.310;2023-06-04T01:07:45;94705.31;;;18.32;60.04
75051;BME280;63628;47.656;11.310;2023-06-04T01:10:13;94708.50;;;16.32;57.64
75051;BME280;63628;47.656;11.310;2023-06-04T01:12:41;94710.03;;;15.46;68.34
75051;BME280;63628;47.656;11.310;2023-06-04T01:15:09;94710.56;;;18.71;59.07
75051;BME280;63628;47.656;11.310;2023-06-04T01:17:39;94710.13;;;19.12;57.35
75051;BME280;63628;47.656;11.310;2023-06-04T01:20:25;94703.81;;;19.21;56.90
75051;BME280;63628;47.656;11.310;2023-06-04T01:23:05;94719.53;;;17.54;57.23
75051;BME280;63628;47.656;11.310;2023-06-04T01:25:41;94711.75;;;18.89;57.72
75051;BME280;63628;47.656;11.310;2023-06-04T01:28:11;94705.56;;;19.12;56.94
75051;BME280;63628;47.656;11.310;2023-06-04T01:30:41;94722.19;;;15.02;61.01
75051;BME280;63628;47.656;11.310;2023-06-04T01:33:13;94723.72;;;14.40;70.98
75051;BME280;63628;47.656;11.310;2023-06-04T01:35:41;94707.50;;;18.30;59.24
75051;BME280;63628;47.656;11.310;2023-06-04T01:38:08;94716.44;;;17.32;54.42
75051;BME280;63628;47.656;11.310;2023-06-04T01:40:35;94720.72;;;17.33;62.16
75051;BME280;63628;47.656;11.310;2023-06-04T01:43:02;94708.13;;;18.75;57.73
75051;BME280;63628;47.656;11.310;2023-06-04T01:45:30;94721.91;;;18.92;57.30
75051;BME280;63628;47.656;11.310;2023-06-04T01:47:57;94724.56;;;18.92;57.18
75051;BME280;63628;47.656;11.310;2023-06-04T01:50:26;94725.59;;;18.96;57.05
75051;BME280;63628;47.656;11.310;2023-06-04T01:52:54;94720.81;;;18.93;56.89
75051;BME280;63628;47.656;11.310;2023-06-04T01:55:21;94725.88;;;18.94;56.87
75051;BME280;63628;47.656;11.310;2023-06-04T01:57:48;94718.66;;;18.95;56.95
75051;BME280;63628;47.656;11.310;2023-06-04T02:00:14;94721.03;;;18.96;56.87
75051;BME280;63628;47.656;11.310;2023-06-04T02:02:43;94718.13;;;18.93;56.84
75051;BME280;63628;47.656;11.310;2023-06-04T02:05:10;94723.94;;;19.00;56.65
75051;BME280;63628;47.656;11.310;2023-06-04T02:07:38;94724.28;;;18.93;56.66
75051;BME280;63628;47.656;11.310;2023-06-04T02:10:08;94731.53;;;18.93;56.61
75051;BME280;63628;47.656;11.310;2023-06-04T02:12:37;94732.34;;;18.93;56.65
75051;BME280;63628;47.656;11.310;2023-06-04T02:15:05;94729.06;;;18.44;51.38
75051;BME280;63628;47.656;11.310;2023-06-04T02:17:32;94737.06;;;16.16;64.40
75051;BME280;63628;47.656;11.310;2023-06-04T02:19:59;94735.94;;;18.26;58.58
75051;BME280;63628;47.656;11.310;2023-06-04T02:22:26;94728.75;;;18.16;58.03
75051;BME280;63628;47.656;11.310;2023-06-04T02:24:52;94731.78;;;18.67;57.14
75051;BME280;63628;47.656;11.310;2023-06-04T02:27:20;94726.88;;;18.75;56.82
75051;BME280;63628;47.656;11.310;2023-06-04T02:29:47;94733.56;;;18.77;56.75
75051;BME280;63628;47.656;11.310;2023-06-04T02:32:14;94737.56;;;18.80;56.63
75051;BME280;63628;47.656;11.310;2023-06-04T02:34:41;94735.97;;;18.79;56.70
75051;BME280;63628;47.656;11.310;2023-06-04T02:37:07;94734.94;;;18.75;56.70
75051;BME280;63628;47.656;11.310;2023-06-04T02:39:35;94737.16;;;18.67;57.01
75051;BME280;63628;47.656;11.310;2023-06-04T02:42:01;94740.06;;;18.71;56.71
75051;BME280;63628;47.656;11.310;2023-06-04T02:44:29;94730.94;;;18.72;56.54
75051;BME280;63628;47.656;11.310;2023-06-04T02:46:56;94731.16;;;18.76;56.34
75051;BME280;63628;47.656;11.310;2023-06-04T02:49:24;94746.47;;;18.75;56.31
75051;BME280;63628;47.656;11.310;2023-06-04T02:51:51;94744.41;;;18.67;56.57
75051;BME280;63628;47.656;11.310;2023-06-04T02:54:18;94745.78;;;18.64;56.55
75051;BME280;63628;47.656;11.310;2023-06-04T02:56:44;94743.59;;;18.66;56.53
75051;BME280;63628;47.656;11.310;2023-06-04T02:59:11;94741.19;;;18.65;56.64
75051;BME280;63628;47.656;11.310;2023-06-04T03:01:43;94741.50;;;18.63;56.52
75051;BME280;63628;47.656;11.310;2023-06-04T03:04:10;94747.66;;;18.59;56.70
75051;BME280;63628;47.656;11.310;2023-06-04T03:06:42;94747.94;;;18.57;56.65
75051;BME280;63628;47.656;11.310;2023-06-04T03:09:13;94740.16;;;18.61;56.07
75051;BME280;63628;47.656;11.310;2023-06-04T03:11:40;94749.03;;;18.56;56.49
75051;BME280;63628;47.656;11.310;2023-06-04T03:14:06;94750.97;;;18.51;56.64
75051;BME280;63628;47.656;11.310;2023-06-04T03:16:33;94751.53;;;18.48;56.66
75051;BME280;63628;47.656;11.310;2023-06-04T03:19:01;94749.38;;;18.50;56.40
75051;BME280;63628;47.656;11.310;2023-06-04T03:21:28;94755.00;;;18.48;56.53
75051;BME280;63628;47.656;11.310;2023-06-04T03:23:57;94748.63;;;18.44;56.53
75051;BME280;63628;47.656;11.310;2023-06-04T03:26:23;94754.78;;;18.45;56.53
75051;BME280;63628;47.656;11.310;2023-06-04T03:28:50;94755.88;;;18.44;56.54
75051;BME280;63628;47.656;11.310;2023-06-04T03:31:17;94752.16;;;18.40;56.70
75051;BME280;63628;47.656;11.310;2023-06-04T03:33:45;94760.19;;;18.40;56.56
75051;BME280;63628;47.656;11.310;2023-06-04T03:36:13;94748.44;;;18.35;56.68
75051;BME280;63628;47.656;11.310;2023-06-04T03:38:39;94758.91;;;18.32;56.74
75051;BME280;63628;47.656;11.310;2023-06-04T03:41:06;94767.53;;;18.29;56.63
75051;BME280;63628;47.656;11.310;2023-06-04T03:43:33;94763.00;;;18.24;56.81
75051;BME280;63628;47.656;11.310;2023-06-04T03:46:00;94764.88;;;18.24;56.74
75051;BME280;63628;47.656;11.310;2023-06-04T03:48:26;94764.03;;;18.28;56.49
75051;BME280;63628;47.656;11.310;2023-06-04T03:50:53;94761.13;;;18.25;56.59
75051;BME280;63628;47.656;11.310;2023-06-04T03:53:21;94756.31;;;18.22;56.65
75051;BME280;63628;47.656;11.310;2023-06-04T03:55:48;94757.63;;;16.15;58.95
75051;BME280;63628;47.656;11.310;2023-06-04T03:58:14;94769.69;;;14.63;64.85
75051;BME280;63628;47.656;11.310;2023-06-04T04:00:41;94773.34;;;13.33;69.12
75051;BME280;63628;47.656;11.310;2023-06-04T04:03:08;94773.06;;;12.14;74.27
75051;BME280;63628;47.656;11.310;2023-06-04T04:05:36;94771.88;;;13.21;70.71
75051;BME280;63628;47.656;11.310;2023-06-04T04:08:03;94783.75;;;12.96;74.27
75051;BME280;63628;47.656;11.310;2023-06-04T04:10:31;94771.19;;;16.80;61.31
75051;BME280;63628;47.656;11.310;2023-06-04T04:12:58;94770.66;;;17.58;58.53
75051;BME280;63628;47.656;11.310;2023-06-04T04:15:25;94770.63;;;17.68;58.14
75051;BME280;63628;47.656;11.310;2023-06-04T04:17:52;94774.53;;;17.26;59.44
75051;BME280;63628;47.656;11.310;2023-06-04T04:20:19;94779.50;;;16.53;61.60
75051;BME280;63628;47.656;11.310;2023-06-04T04:22:46;94787.28;;;14.00;70.78
75051;BME280;63628;47.656;11.310;2023-06-04T04:25:15;94795.25;;;13.68;74.90
75051;BME280;63628;47.656;11.310;2023-06-04T04:27:43;94788.50;;;14.46;69.84
75051;BME280;63628;47.656;11.310;2023-06-04T04:30:11;94794.53;;;13.77;73.50
75051;BME280;63628;47.656;11.310;2023-06-04T04:32:40;94787.09;;;15.38;66.83
75051;BME280;63628;47.656;11.310;2023-06-04T04:35:15;94784.53;;;17.00;60.43
75051;BME280;63628;47.656;11.310;2023-06-04T04:37:44;94785.38;;;16.75;62.24
75051;BME280;63628;47.656;11.310;2023-06-04T04:40:11;94796.84;;;14.59;72.40
75051;BME280;63628;47.656;11.310;2023-06-04T04:42:39;94809.22;;;14.12;74.86
75051;BME280;63628;47.656;11.310;2023-06-04T04:45:08;94808.38;;;14.06;74.33
75051;BME280;63628;47.656;11.310;2023-06-04T04:47:35;94815.22;;;13.97;74.99
75051;BME280;63628;47.656;11.310;2023-06-04T04:50:02;94812.38;;;14.41;74.50
75051;BME280;63628;47.656;11.310;2023-06-04T04:52:28;94814.47;;;14.34;74.52
75051;BME280;63628;47.656;11.310;2023-06-04T04:54:55;94816.22;;;14.23;74.46
75051;BME280;63628;47.656;11.310;2023-06-04T04:57:23;94816.19;;;14.18;72.24
75051;BME280;63628;47.656;11.310;2023-06-04T04:59:50;94817.53;;;14.95;69.46
75051;BME280;63628;47.656;11.310;2023-06-04T05:02:18;94818.44;;;15.78;65.84
75051;BME280;63628;47.656;11.310;2023-06-04T05:04:45;94828.69;;;16.67;61.70
75051;BME280;63628;47.656;11.310;2023-06-04T05:07:12;94821.19;;;16.44;62.93
75051;BME280;63628;47.656;11.310;2023-06-04T05:09:40;94828.91;;;17.01;60.52
75051;BME280;63628;47.656;11.310;2023-06-04T05:12:07;94827.28;;;17.10;60.02
75051;BME280;63628;47.656;11.310;2023-06-04T05:14:33;94835.56;;;17.14;59.76
75051;BME280;63628;47.656;11.310;2023-06-04T05:17:02;94831.28;;;17.18;59.25
75051;BME280;63628;47.656;11.310;2023-06-04T05:19:34;94837.69;;;17.22;59.66
75051;BME280;63628;47.656;11.310;2023-06-04T05:22:01;94837.13;;;17.25;59.14
75051;BME280;63628;47.656;11.310;2023-06-04T05:24:27;94838.19;;;17.29;59.25
75051;BME280;63628;47.656;11.310;2023-06-04T05:26:55;94838.19;;;17.29;59.20
75051;BME280;63628;47.656;11.310;2023-06-04T05:29:22;94834.72;;;17.29;58.82
75051;BME280;63628;47.656;11.310;2023-06-04T05:31:49;94834.16;;;17.32;58.99
75051;BME280;63628;47.656;11.310;2023-06-04T05:34:16;94833.09;;;17.33;58.89
75051;BME280;63628;47.656;11.310;2023-06-04T05:36:44;94835.47;;;17.39;61.97
75051;BME280;63628;47.656;11.310;2023-06-04T05:39:13;94838.97;;;17.35;59.03
75051;BME280;63628;47.656;11.310;2023-06-04T05:41:40;94840.91;;;17.14;68.15
75051;BME280;63628;47.656;11.310;2023-06-04T05:44:07;94834.53;;;16.90;69.77
75051;BME280;63628;47.656;11.310;2023-06-04T05:46:34;94836.94;;;16.56;69.95
75051;BME280;63628;47.656;11.310;2023-06-04T05:49:00;94834.81;;;16.98;70.25
75051;BME280;63628;47.656;11.310;2023-06-04T05:51:27;94838.66;;;17.47;64.91
75051;BME280;63628;47.656;11.310;2023-06-04T05:53:55;94844.50;;;17.59;68.56
75051;BME280;63628;47.656;11.310;2023-06-04T05:56:22;94844.78;;;18.12;66.87
75051;BME280;63628;47.656;11.310;2023-06-04T05:58:51;94851.53;;;18.04;65.26
75051;BME280;63628;47.656;11.310;2023-06-04T06:01:18;94851.84;;;17.97;67.19
75051;BME280;63628;47.656;11.310;2023-06-04T06:03:45;94852.50;;;18.23;60.96
75051;BME280;63628;47.656;11.310;2023-06-04T06:06:12;94846.59;;;18.26;64.67
75051;BME280;63628;47.656;11.310;2023-06-04T06:08:38;94850.66;;;18.14;64.70
75051;BME280;63628;47.656;11.310;2023-06-04T06:11:06;94852.81;;;17.52;64.78
75051;BME280;63628;47.656;11.310;2023-06-04T06:13:36;94841.56;;;17.60;67.10
75051;BME280;63628;47.656;11.310;2023-06-04T06:16:03;94855.69;;;16.66;67.19
75051;BME280;63628;47.656;11.310;2023-06-04T06:18:31;94859.13;;;15.43;71.64
75051;BME280;63628;47.656;11.310;2023-06-04T06:20:57;94858.31;;;15.47;71.33
75051;BME280;63628;47.656;11.310;2023-06-04T06:23:24;94853.78;;;16.51;67.96
75051;BME280;63628;47.656;11.310;2023-06-04T06:25:51;94848.72;;;16.80;66.70
75051;BME280;63628;47.656;11.310;2023-06-04T06:28:19;94849.88;;;17.49;65.89
75051;BME280;63628;47.656;11.310;2023-06-04T06:30:46;94848.13;;;17.88;63.47
75051;BME280;63628;47.656;11.310;2023-06-04T06:33:14;94846.47;;;17.28;66.66
75051;BME280;63628;47.656;11.310;2023-06-04T06:35:41;94850.66;;;17.69;65.29
75051;BME280;63628;47.656;11.310;2023-06-04T06:38:08;94856.75;;;16.75;68.00
75051;BME280;63628;47.656;11.310;2023-06-04T06:40:35;94851.91;;;17.07;67.92
75051;BME280;63628;47.656;11.310;2023-06-04T06:43:02;94854.88;;;16.96;65.89
75051;BME280;63628;47.656;11.310;2023-06-04T06:45:30;94856.47;;;16.51;66.24
75051;BME280;63628;47.656;11.310;2023-06-04T06:47:57;94855.34;;;17.18;65.96
75051;BME280;63628;47.656;11.310;2023-06-04T06:50:24;94850.22;;;17.32;65.85
75051;BME280;63628;47.656;11.310;2023-06-04T06:52:50;94846.66;;;18.84;61.59
75051;BME280;63628;47.656;11.310;2023-06-04T06:55:17;94846.47;;;18.42;63.21
75051;BME280;63628;47.656;11.310;2023-06-04T06:57:44;94847.06;;;17.89;62.95
75051;BME280;63628;47.656;11.310;2023-06-04T07:00:12;94848.78;;;18.53;62.10
75051;BME280;63628;47.656;11.310;2023-06-04T07:02:40;94845.56;;;17.63;64.76
75051;BME280;63628;47.656;11.310;2023-06-04T07:05:07;94843.06;;;18.31;62.98
75051;BME280;63628;47.656;11.310;2023-06-04T07:07:34;94849.25;;;18.60;61.45
75051;BME280;63628;47.656;11.310;2023-06-04T07:10:01;94840.50;;;18.50;61.13
75051;BME280;63628;47.656;11.310;2023-06-04T07:12:30;94846.84;;;18.64;59.43
75051;BME280;63628;47.656;11.310;2023-06-04T07:14:56;94840.78;;;18.82;59.41
75051;BME280;63628;47.656;11.310;2023-06-04T07:17:23;94840.38;;;18.99;57.12
75051;BME280;63628;47.656;11.310;2023-06-04T07:19:51;94840.84;;;17.99;63.44
75051;BME280;63628;47.656;11.310;2023-06-04T07:22:18;94850.84;;;17.03;64.15
75051;BME280;63628;47.656;11.310;2023-06-04T07:24:45;94834.53;;;16.85;64.46
75051;BME280;63628;47.656;11.310;2023-06-04T07:27:12;94854.75;;;17.31;62.99
75051;BME280;63628;47.656;11.310;2023-06-04T07:29:38;94849.91;;;17.43;63.76
75051;BME280;63628;47.656;11.310;2023-06-04T07:32:05;94847.91;;;17.80;63.28
75051;BME280;63628;47.656;11.310;2023-06-04T07:34:33;94850.81;;;17.88;63.03
75051;BME280;63628;47.656;11.310;2023-06-04T07:37:01;94848.94;;;18.33;64.01
75051;BME280;63628;47.656;11.310;2023-06-04T07:39:28;94851.81;;;17.33;63.97
75051;BME280;63628;47.656;11.310;2023-06-04T07:41:55;94846.38;;;17.68;63.48
75051;BME280;63628;47.656;11.310;2023-06-04T07:44:22;94847.41;;;17.78;63.25
75051;BME280;63628;47.656;11.310;2023-06-04T07:46:48;94842.94;;;18.07;61.35
75051;BME280;63628;47.656;11.310;2023-06-04T07:49:15;94836.03;;;18.74;64.07
75051;BME280;63628;47.656;11.310;2023-06-04T07:51:42;94834.81;;;18.61;61.83
75051;BME280;63628;47.656;11.310;2023-06-04T07:54:10;94829.41;;;20.47;59.89
75051;BME280;63628;47.656;11.310;2023-06-04T07:56:37;94830.19;;;19.91;56.31
75051;BME280;63628;47.656;11.310;2023-06-04T07:59:04;94825.72;;;18.91;59.95
75051;BME280;63628;47.656;11.310;2023-06-04T08:01:30;94831.91;;;18.53;59.81
75051;BME280;63628;47.656;11.310;2023-06-04T08:03:57;94816.69;;;19.97;61.00
75051;BME280;63628;47.656;11.310;2023-06-04T08:06:25;94827.72;;;19.76;59.58
75051;BME280;63628;47.656;11.310;2023-06-04T08:08:53;94823.00;;;21.08;55.11
75051;BME280;63628;47.656;11.310;2023-06-04T08:11:21;94828.50;;;19.58;57.52
75051;BME280;63628;47.656;11.310;2023-06-04T08:13:51;94825.88;;;19.48;57.54
75051;BME280;63628;47.656;11.310;2023-06-04T08:16:17;94830.91;;;19.59;61.13
75051;BME280;63628;47.656;11.310;2023-06-04T08:18:44;94827.41;;;19.59;57.93
75051;BME280;63628;47.656;11.310;2023-06-04T08:21:11;94832.56;;;19.55;58.26
75051;BME280;63628;47.656;11.310;2023-06-04T08:23:43;94836.16;;;19.41;59.37
75051;BME280;63628;47.656;11.310;2023-06-04T08:26:10;94838.41;;;19.33;59.17
75051;BME280;63628;47.656;11.310;2023-06-04T08:28:38;94833.25;;;20.60;57.90
75051;BME280;63628;47.656;11.310;2023-06-04T08:31:05;94827.16;;;20.17;54.93
75051;BME280;63628;47.656;11.310;2023-06-04T08:33:32;94833.00;;;18.86;58.18
75051;BME280;63628;47.656;11.310;2023-06-04T08:35:59;94830.63;;;18.79;59.86
75051;BME280;63628;47.656;11.310;2023-06-04T08:38:26;94821.31;;;19.72;56.45
75051;BME280;63628;47.656;11.310;2023-06-04T08:40:53;94824.09;;;21.07;55.80
75051;BME280;63628;47.656;11.310;2023-06-04T08:43:24;94818.31;;;23.22;52.05
75051;BME280;63628;47.656;11.310;2023-06-04T08:45:57;94820.59;;;21.53;55.41
75051;BME280;63628;47.656;11.310;2023-06-04T08:48:26;94820.75;;;19.75;56.90
75051;BME280;63628;47.656;11.310;2023-06-04T08:50:57;94823.03;;;20.24;54.91
75051;BME280;63628;47.656;11.310;2023-06-04T08:53:24;94828.28;;;19.25;58.97
75051;BME280;63628;47.656;11.310;2023-06-04T08:55:53;94821.56;;;19.04;59.77
75051;BME280;63628;47.656;11.310;2023-06-04T08:58:20;94830.97;;;19.02;60.17
75051;BME280;63628;47.656;11.310;2023-06-04T09:00:47;94827.09;;;19.37;60.12
75051;BME280;63628;47.656;11.310;2023-06-04T09:03:15;94827.88;;;19.85;56.21
75051;BME280;63628;47.656;11.310;2023-06-04T09:05:44;94820.81;;;21.93;53.17
75051;BME280;63628;47.656;11.310;2023-06-04T09:08:16;94825.66;;;21.41;50.89
75051;BME280;63628;47.656;11.310;2023-06-04T09:10:44;94811.75;;;23.93;48.96
75051;BME280;63628;47.656;11.310;2023-06-04T09:13:13;94799.97;;;22.34;50.48
75051;BME280;63628;47.656;11.310;2023-06-04T09:15:42;94813.81;;;20.96;51.68
75051;BME280;63628;47.656;11.310;2023-06-04T09:18:09;94817.63;;;21.22;48.62
75051;BME280;63628;47.656;11.310;2023-06-04T09:20:37;94815.78;;;21.36;48.42
75051;BME280;63628;47.656;11.310;2023-06-04T09:23:12;94808.84;;;21.85;48.63
75051;BME280;63628;47.656;11.310;2023-06-04T09:25:42;94812.59;;;23.23;48.93
75051;BME280;63628;47.656;11.310;2023-06-04T09:28:09;94807.03;;;24.08;40.63
75051;BME280;63628;47.656;11.310;2023-06-04T09:30:36;94808.44;;;24.14;44.44
75051;BME280;63628;47.656;11.310;2023-06-04T09:33:07;94808.16;;;24.41;41.13
75051;BME280;63628;47.656;11.310;2023-06-04T09:35:34;94809.59;;;24.47;39.33
75051;BME280;63628;47.656;11.310;2023-06-04T09:38:04;94810.16;;;24.01;39.81
75051;BME280;63628;47.656;11.310;2023-06-04T09:40:35;94807.69;;;24.48;43.98
75051;BME280;63628;47.656;11.310;2023-06-04T09:43:02;94797.97;;;24.29;46.60
75051;BME280;63628;47.656;11.310;2023-06-04T09:45:30;94802.41;;;24.51;40.57
75051;BME280;63628;47.656;11.310;2023-06-04T09:47:58;94811.16;;;23.17;46.76
75051;BME280;63628;47.656;11.310;2023-06-04T09:50:25;94806.44;;;23.62;41.64
75051;BME280;63628;47.656;11.310;2023-06-04T09:52:52;94797.03;;;24.43;40.75
75051;BME280;63628;47.656;11.310;2023-06-04T09:55:20;94804.78;;;24.87;39.85
75051;BME280;63628;47.656;11.310;2023-06-04T09:57:50;94806.94;;;25.20;37.66
75051;BME280;63628;47.656;11.310;2023-06-04T10:00:17;94803.69;;;24.11;42.55
75051;BME280;63628;47.656;11.310;2023-06-04T10:02:45;94804.94;;;25.46;40.46
75051;BME280;63628;47.656;11.310;2023-06-04T10:05:16;94802.69;;;23.98;38.72
75051;BME280;63628;47.656;11.310;2023-06-04T10:07:44;94796.56;;;25.22;37.71
75051;BME280;63628;47.656;11.310;2023-06-04T10:10:15;94801.78;;;24.54;38.17
75051;BME280;63628;47.656;11.310;2023-06-04T10:12:46;94800.94;;;24.97;38.32
75051;BME280;63628;47.656;11.310;2023-06-04T10:15:19;94804.47;;;25.44;40.34
75051;BME280;63628;47.656;11.310;2023-06-04T10:17:47;94805.78;;;25.29;38.42
75051;BME280;63628;47.656;11.310;2023-06-04T10:20:15;94803.59;;;25.61;39.55
75051;BME280;63628;47.656;11.310;2023-06-04T10:22:43;94803.47;;;23.90;45.30
75051;BME280;63628;47.656;11.310;2023-06-04T10:25:10;94804.47;;;25.44;39.40
75051;BME280;63628;47.656;11.310;2023-06-04T10:27:37;94797.91;;;24.90;37.77
75051;BME280;63628;47.656;11.310;2023-06-04T10:30:07;94799.03;;;24.98;41.20
75051;BME280;63628;47.656;11.310;2023-06-04T10:32:34;94795.00;;;23.34;47.08
75051;BME280;63628;47.656;11.310;2023-06-04T10:35:03;94794.56;;;23.81;48.23
75051;BME280;63628;47.656;11.310;2023-06-04T10:37:31;94778.50;;;24.71;44.45
75051;BME280;63628;47.656;11.310;2023-06-04T10:39:58;94798.44;;;25.30;40.06
75051;BME280;63628;47.656;11.310;2023-06-04T10:42:25;94790.94;;;25.44;39.69
75051;BME280;63628;47.656;11.310;2023-06-04T10:44:54;94797.69;;;25.21;40.24
75051;BME280;63628;47.656;11.310;2023-06-04T10:47:26;94790.66;;;24.39;44.74
75051;BME280;63628;47.656;11.310;2023-06-04T10:49:54;94792.34;;;25.04;36.93
75051;BME280;63628;47.656;11.310;2023-06-04T10:52:21;94792.50;;;23.95;38.49
75051;BME280;63628;47.656;11.310;2023-06-04T10:54:48;94791.59;;;24.43;42.53
75051;BME280;63628;47.656;11.310;2023-06-04T10:57:20;94796.38;;;24.54;41.22
75051;BME280;63628;47.656;11.310;2023-06-04T10:59:54;94794.13;;;24.65;42.89
75051;BME280;63628;47.656;11.310;2023-06-04T11:02:21;94789.31;;;24.96;40.62
75051;BME280;63628;47.656;11.310;2023-06-04T11:04:58;94795.38;;;24.93;39.93
75051;BME280;63628;47.656;11.310;2023-06-04T11:07:27;94802.00;;;25.69;40.75
75051;BME280;63628;47.656;11.310;2023-06-04T11:09:55;94788.13;;;24.33;38.08
75051;BME280;63628;47.656;11.310;2023-06-04T11:12:22;94787.63;;;24.31;40.45
75051;BME280;63628;47.656;11.310;2023-06-04T11:14:55;94782.16;;;25.01;42.24
75051;BME280;63628;47.656;11.310;2023-06-04T11:17:21;94790.16;;;24.71;40.31
75051;BME280;63628;47.656;11.310;2023-06-04T11:19:51;94787.44;;;24.80;38.93
75051;BME280;63628;47.656;11.310;2023-06-04T11:22:23;94792.69;;;24.85;38.04
75051;BME280;63628;47.656;11.310;2023-06-04T11:24:56;94793.94;;;25.05;40.20
75051;BME280;63628;47.656;11.310;2023-06-04T11:27:22;94791.44;;;25.29;37.56
75051;BME280;63628;47.656;11.310;2023-06-04T11:30:01;94795.25;;;24.21;42.09
75051;BME280;63628;47.656;11.310;2023-06-04T11:32:28;94782.53;;;24.30;42.36
75051;BME280;63628;47.656;11.310;2023-06-04T11:35:02;94797.97;;;24.38;41.11
75051;BME280;63628;47.656;11.310;2023-06-04T11:37:31;94797.47;;;24.19;42.72
75051;BME280;63628;47.656;11.310;2023-06-04T11:39:59;94789.31;;;24.01;38.22
75051;BME280;63628;47.656;11.310;2023-06-04T11:42:27;94786.50;;;24.58;40.58
75051;BME280;63628;47.656;11.310;2023-06-04T11:44:55;94778.09;;;24.34;41.55
75051;BME280;63628;47.656;11.310;2023-06-04T11:47:23;94776.63;;;24.54;41.79
75051;BME280;63628;47.656;11.310;2023-06-04T11:49:54;94781.28;;;24.36;44.25
75051;BME280;63628;47.656;11.310;2023-06-04T11:52:21;94781.69;;;24.03;40.57
75051;BME280;63628;47.656;11.310;2023-06-04T11:54:50;94779.78;;;23.95;44.50
75051;BME280;63628;47.656;11.310;2023-06-04T11:57:20;94777.66;;;23.27;41.01
75051;BME280;63628;47.656;11.310;2023-06-04T11:59:48;94775.06;;;23.53;43.83
75051;BME280;63628;47.656;11.310;2023-06-04T12:02:14;94776.53;;;23.59;43.29
75051;BME280;63628;47.656;11.310;2023-06-04T12:04:42;94780.53;;;23.61;42.07
75051;BME280;63628;47.656;11.310;2023-06-04T12:07:08;94776.63;;;24.19;42.55
75051;BME280;63628;47.656;11.310;2023-06-04T12:09:36;94776.56;;;23.67;41.28
75051;BME280;63628;47.656;11.310;2023-06-04T12:12:07;94765.59;;;23.24;43.27
75051;BME280;63628;47.656;11.310;2023-06-04T12:14:34;94771.72;;;23.47;43.04
75051;BME280;63628;47.656;11.310;2023-06-04T12:17:05;94772.41;;;23.61;41.39
75051;BME280;63628;47.656;11.310;2023-06-04T12:19:32;94778.09;;;23.12;44.94
75051;BME280;63628;47.656;11.310;2023-06-04T12:22:00;94777.84;;;23.79;41.64
75051;BME280;63628;47.656;11.310;2023-06-04T12:24:32;94776.25;;;23.29;42.11
75051;BME280;63628;47.656;11.310;2023-06-04T12:27:03;94776.31;;;23.07;40.29
75051;BME280;63628;47.656;11.310;2023-06-04T12:29:32;94770.25;;;23.01;41.28
75051;BME280;63628;47.656;11.310;2023-06-04T12:32:03;94768.00;;;23.34;41.51
75051;BME280;63628;47.656;11.310;2023-06-04T12:34:31;94776.97;;;23.13;41.53
75051;BME280;63628;47.656;11.310;2023-06-04T12:36:58;94781.72;;;23.07;40.17
75051;BME280;63628;47.656;11.310;2023-06-04T12:39:25;94773.84;;;22.66;40.64
75051;BME280;63628;47.656;11.310;2023-06-04T12:41:51;94776.41;;;22.93;41.26
75051;BME280;63628;47.656;11.310;2023-06-04T12:44:18;94775.75;;;22.88;44.02
75051;BME280;63628;47.656;11.310;2023-06-04T12:46:46;94778.59;;;23.22;44.23
75051;BME280;63628;47.656;11.310;2023-06-04T12:49:13;94773.06;;;23.27;42.49
75051;BME280;63628;47.656;11.310;2023-06-04T12:51:40;94761.88;;;22.58;40.14
75051;BME280;63628;47.656;11.310;2023-06-04T12:54:07;94766.16;;;23.04;42.11